Terminal Aerodrome Forecast
Issued by NWS

Home | Current Version | Previous Version | Graphics & Text | Print | Product List | Glossary On
Versions: 1 2 3 4 5 6 7 8 9 10 11 12 13 14 15 16 17 18 19
702
FTUS43 KGRB 252336
TAFATW
TAF
KATW 252336Z 2600/2624 30005KT P6SM SKC
     FM260400 VRB02KT P6SM SKC
      TEMPO 2608/2612 4SM BR
     FM261500 24006KT P6SM FEW035=

USA.gov is the U.S. government's official web portal to all federal, state and local government web resources and services.